createdAt,value
2023-04-27T00:00:25.696Z,1.45
2023-04-27T00:02:59.494Z,1.00
2023-04-27T00:05:26.083Z,1.17
2023-04-27T00:07:52.439Z,1.30
2023-04-27T00:10:18.913Z,1.13
2023-04-27T00:12:45.371Z,1.55
2023-04-27T00:15:11.737Z,2.10
2023-04-27T00:17:38.144Z,1.70
2023-04-27T00:20:04.754Z,0.93
2023-04-27T00:22:31.039Z,1.52
2023-04-27T00:24:57.697Z,1.00
2023-04-27T00:27:31.391Z,1.83
2023-04-27T00:30:00.162Z,1.08
2023-04-27T00:32:29.077Z,1.52
2023-04-27T00:35:02.862Z,1.20
2023-04-27T00:37:29.098Z,1.17
2023-04-27T00:39:55.292Z,1.00
2023-04-27T00:42:24.036Z,0.93
2023-04-27T00:44:50.410Z,1.27
2023-04-27T00:47:16.665Z,1.45
2023-04-27T00:49:43.078Z,2.13
2023-04-27T00:52:09.408Z,1.65
2023-04-27T00:54:38.598Z,1.42
2023-04-27T00:57:05.063Z,1.52
2023-04-27T00:59:31.277Z,1.42
2023-04-27T01:01:57.816Z,1.10
2023-04-27T01:04:34.913Z,1.30
2023-04-27T01:07:01.729Z,1.25
2023-04-27T01:09:34.665Z,1.58
2023-04-27T01:12:01.043Z,1.05
2023-04-27T01:14:27.308Z,1.20
2023-04-27T01:16:53.611Z,1.30
2023-04-27T01:19:22.233Z,1.20
2023-04-27T01:21:48.670Z,1.33
2023-04-27T01:24:14.901Z,0.93
2023-04-27T01:26:44.117Z,1.17
2023-04-27T01:29:10.405Z,1.23
2023-04-27T01:31:38.321Z,1.67
2023-04-27T01:34:05.767Z,2.15
2023-04-27T01:36:32.012Z,2.33
2023-04-27T01:38:58.287Z,1.25
2023-04-27T01:41:31.304Z,1.50
2023-04-27T01:43:57.881Z,1.90
2023-04-27T01:46:24.149Z,1.98
2023-04-27T01:48:50.523Z,1.38
2023-04-27T01:51:16.740Z,1.70
2023-04-27T01:53:45.942Z,1.83
2023-04-27T01:56:12.191Z,1.60
2023-04-27T01:58:39.735Z,1.65
2023-04-27T02:01:07.181Z,1.58
2023-04-27T02:03:37.915Z,1.33
2023-04-27T02:06:04.387Z,1.98
2023-04-27T02:08:30.699Z,1.55
2023-04-27T02:11:01.298Z,1.70
2023-04-27T02:13:27.650Z,1.77
2023-04-27T02:15:54.356Z,1.65
2023-04-27T02:18:24.353Z,1.63
2023-04-27T02:20:50.625Z,1.90
2023-04-27T02:23:19.565Z,1.83
2023-04-27T02:25:45.982Z,2.05
2023-04-27T02:28:15.262Z,1.50
2023-04-27T02:30:42.018Z,1.70
2023-04-27T02:33:09.553Z,2.05
2023-04-27T02:35:35.816Z,1.60
2023-04-27T02:38:02.187Z,2.00
2023-04-27T02:40:28.448Z,1.65
2023-04-27T02:42:54.795Z,2.00
2023-04-27T02:45:21.098Z,2.10
2023-04-27T02:47:47.625Z,2.20
2023-04-27T02:50:13.926Z,2.08
2023-04-27T02:52:44.579Z,2.42
2023-04-27T02:55:11.105Z,1.63
2023-04-27T02:57:41.029Z,2.67
2023-04-27T03:00:07.555Z,2.20
2023-04-27T03:02:36.549Z,2.30
2023-04-27T03:05:03.048Z,2.63
2023-04-27T03:07:29.356Z,2.40
2023-04-27T03:09:55.798Z,2.15
2023-04-27T03:12:22.086Z,2.10
2023-04-27T03:14:48.309Z,2.53
2023-04-27T03:17:17.014Z,2.00
2023-04-27T03:19:45.674Z,1.90
2023-04-27T03:22:12.003Z,2.55
2023-04-27T03:24:39.056Z,1.80
2023-04-27T03:27:12.657Z,1.88
2023-04-27T03:29:38.906Z,2.33
2023-04-27T03:32:05.343Z,2.20
2023-04-27T03:34:31.938Z,1.73
2023-04-27T03:36:58.274Z,2.53
2023-04-27T03:39:26.990Z,2.50
2023-04-27T03:41:53.212Z,2.40
2023-04-27T03:44:19.525Z,1.88
2023-04-27T03:46:45.896Z,1.73
2023-04-27T03:49:12.303Z,1.88
2023-04-27T03:51:38.755Z,2.10
2023-04-27T03:54:05.011Z,2.28
2023-04-27T03:56:35.254Z,2.35
2023-04-27T03:59:01.511Z,1.52
2023-04-27T04:01:32.089Z,1.88
2023-04-27T04:04:00.825Z,2.35
2023-04-27T04:06:27.211Z,2.38
2023-04-27T04:08:54.267Z,2.28
2023-04-27T04:11:20.543Z,2.08
2023-04-27T04:13:47.212Z,2.40
2023-04-27T04:16:13.714Z,1.52
2023-04-27T04:18:40.996Z,1.92
2023-04-27T04:21:09.017Z,2.88
2023-04-27T04:23:35.564Z,2.15
2023-04-27T04:26:06.894Z,2.05
2023-04-27T04:28:51.183Z,2.30
2023-04-27T04:31:17.505Z,1.92
2023-04-27T04:33:43.957Z,2.58
2023-04-27T04:36:11.381Z,2.80
2023-04-27T04:38:38.815Z,2.70
2023-04-27T04:41:05.233Z,2.45
2023-04-27T04:43:32.672Z,2.33
2023-04-27T04:45:58.900Z,2.17
2023-04-27T04:48:25.331Z,2.13
2023-04-27T04:50:51.611Z,2.15
2023-04-27T04:53:17.864Z,3.08
2023-04-27T04:55:44.289Z,3.03
2023-04-27T04:58:10.693Z,2.70
2023-04-27T05:00:37.221Z,2.80
2023-04-27T05:03:03.557Z,3.05
2023-04-27T05:05:30.010Z,2.95
2023-04-27T05:07:56.328Z,2.88
2023-04-27T05:10:22.608Z,3.08
2023-04-27T05:12:48.898Z,2.92
2023-04-27T05:15:15.252Z,3.22
2023-04-27T05:17:48.243Z,2.67
2023-04-27T05:20:17.711Z,2.08
2023-04-27T05:22:43.981Z,2.33
2023-04-27T05:25:13.197Z,2.83
2023-04-27T05:27:39.466Z,3.30
2023-04-27T05:30:08.639Z,3.05
2023-04-27T05:32:35.306Z,3.38
2023-04-27T05:35:01.629Z,3.40
2023-04-27T05:37:27.919Z,3.50
2023-04-27T05:39:54.224Z,2.67
2023-04-27T05:42:26.291Z,2.70
2023-04-27T05:44:52.674Z,3.30
2023-04-27T05:47:18.997Z,3.05
2023-04-27T05:49:49.578Z,2.90
2023-04-27T05:52:15.877Z,2.30
2023-04-27T05:54:46.012Z,2.72
2023-04-27T05:57:12.241Z,3.08
2023-04-27T05:59:38.603Z,3.08
2023-04-27T06:02:06.159Z,2.63
2023-04-27T06:04:32.656Z,2.47
2023-04-27T06:06:59.591Z,2.90
2023-04-27T06:09:27.071Z,3.42
2023-04-27T06:11:54.673Z,2.47
2023-04-27T06:14:21.307Z,2.22
2023-04-27T06:16:53.317Z,2.92
2023-04-27T06:19:19.588Z,3.20
2023-04-27T06:21:45.973Z,2.85
2023-04-27T06:24:12.309Z,3.30
2023-04-27T06:26:39.420Z,3.25
2023-04-27T06:29:08.289Z,3.15
2023-04-27T06:31:35.052Z,3.08
2023-04-27T06:34:01.551Z,2.80
2023-04-27T06:36:28.287Z,3.15
2023-04-27T06:38:55.168Z,3.15
2023-04-27T06:41:23.372Z,2.50
2023-04-27T06:43:51.098Z,3.15
2023-04-27T06:46:19.084Z,2.85
2023-04-27T06:48:55.592Z,3.67
2023-04-27T06:51:23.948Z,2.25
2023-04-27T06:53:51.177Z,3.08
2023-04-27T06:56:17.474Z,2.03
2023-04-27T06:58:43.903Z,2.75
2023-04-27T07:01:10.238Z,3.17
2023-04-27T07:03:37.082Z,2.63
2023-04-27T07:06:03.750Z,2.55
2023-04-27T07:08:32.471Z,2.78
2023-04-27T07:10:58.930Z,2.67
2023-04-27T07:13:29.471Z,2.10
2023-04-27T07:15:58.210Z,2.33
2023-04-27T07:18:24.617Z,2.08
2023-04-27T07:20:53.184Z,1.58
2023-04-27T07:23:20.740Z,1.70
2023-04-27T07:25:47.244Z,1.80
2023-04-27T07:28:13.545Z,1.73
2023-04-27T07:30:45.154Z,1.73
2023-04-27T07:33:11.885Z,1.35
2023-04-27T07:35:38.726Z,2.30
2023-04-27T07:38:07.315Z,1.98
2023-04-27T07:40:33.813Z,2.10
2023-04-27T07:43:00.460Z,2.03
2023-04-27T07:45:30.725Z,1.50
2023-04-27T07:47:58.816Z,1.60
2023-04-27T07:50:31.142Z,1.48
2023-04-27T07:52:59.140Z,1.80
2023-04-27T07:55:32.753Z,0.93
2023-04-27T07:57:59.296Z,1.55
2023-04-27T08:00:26.332Z,1.73
2023-04-27T08:02:53.369Z,1.60
2023-04-27T08:05:20.419Z,1.80
2023-04-27T08:07:47.798Z,1.70
2023-04-27T08:10:14.715Z,2.28
2023-04-27T08:12:43.676Z,2.10
2023-04-27T08:15:12.729Z,1.70
2023-04-27T08:17:39.285Z,2.03
2023-04-27T08:20:06.096Z,1.83
2023-04-27T08:22:34.897Z,1.02
2023-04-27T08:25:01.146Z,2.05
2023-04-27T08:27:31.705Z,1.25
2023-04-27T08:32:33.284Z,1.75
2023-04-27T08:34:59.642Z,1.70
2023-04-27T08:37:26.235Z,1.55
2023-04-27T08:39:52.462Z,1.60
2023-04-27T08:42:18.815Z,1.90
2023-04-27T08:44:45.054Z,1.83
2023-04-27T08:47:11.302Z,1.00
2023-04-27T08:49:37.590Z,1.30
2023-04-27T08:52:09.019Z,2.00
2023-04-27T08:54:35.306Z,1.58
2023-04-27T08:57:01.760Z,1.98
2023-04-27T08:59:27.977Z,1.35
2023-04-27T09:01:54.266Z,1.55
2023-04-27T09:04:23.145Z,1.05
2023-04-27T09:06:49.634Z,0.70
2023-04-27T09:09:23.179Z,0.80
2023-04-27T09:11:52.331Z,1.30
2023-04-27T09:14:24.030Z,0.80
2023-04-27T09:16:57.021Z,1.42
2023-04-27T09:19:23.961Z,1.40
2023-04-27T09:22:02.759Z,1.52
2023-04-27T09:24:29.039Z,1.50
2023-04-27T09:26:55.334Z,1.40
2023-04-27T09:29:31.847Z,1.45
2023-04-27T09:32:00.824Z,1.15
2023-04-27T09:34:38.501Z,1.60
2023-04-27T09:37:07.194Z,1.63
2023-04-27T09:39:34.673Z,1.52
2023-04-27T09:42:03.284Z,1.60
2023-04-27T09:44:30.054Z,1.45
2023-04-27T09:47:00.183Z,1.50
2023-04-27T09:49:28.778Z,2.05
2023-04-27T09:51:56.504Z,1.70
2023-04-27T09:54:24.087Z,2.17
2023-04-27T09:57:03.650Z,2.00
2023-04-27T09:59:41.485Z,2.22
2023-04-27T10:02:23.685Z,2.17
2023-04-27T10:04:54.475Z,2.47
2023-04-27T10:07:21.065Z,1.65
2023-04-27T10:09:50.813Z,2.28
2023-04-27T10:12:26.814Z,2.20
2023-04-27T10:14:56.847Z,2.85
2023-04-27T10:17:33.175Z,2.67
2023-04-27T10:22:38.782Z,2.20
2023-04-27T10:25:21.538Z,2.47
2023-04-27T10:28:06.146Z,2.22
2023-04-27T10:30:50.652Z,2.22
2023-04-27T10:33:18.258Z,2.35
2023-04-27T10:35:53.313Z,2.38
2023-04-27T10:38:20.593Z,2.67
2023-04-27T10:41:02.862Z,2.00
2023-04-27T10:43:30.347Z,2.17
2023-04-27T10:46:12.043Z,2.60
2023-04-27T10:48:43.388Z,2.47
2023-04-27T10:51:14.872Z,2.40
2023-04-27T10:53:41.322Z,1.90
2023-04-27T10:56:07.830Z,2.13
2023-04-27T10:58:48.100Z,1.63
2023-04-27T11:01:25.018Z,2.40
2023-04-27T11:03:55.055Z,2.42
2023-04-27T11:06:21.374Z,1.90
2023-04-27T11:08:47.852Z,2.53
2023-04-27T11:11:16.588Z,2.97
2023-04-27T11:13:43.325Z,2.30
2023-04-27T11:16:15.165Z,2.70
2023-04-27T11:18:41.730Z,2.15
2023-04-27T11:21:17.385Z,2.47
2023-04-27T11:23:43.789Z,2.65
2023-04-27T11:26:16.600Z,2.78
2023-04-27T11:28:43.351Z,3.05
2023-04-27T11:31:10.036Z,2.40
2023-04-27T11:33:39.264Z,2.50
2023-04-27T11:36:15.779Z,2.38
2023-04-27T11:38:42.038Z,2.50
2023-04-27T11:41:10.358Z,2.58
2023-04-27T11:43:46.434Z,2.60
2023-04-27T11:46:15.349Z,2.30
2023-04-27T11:48:44.606Z,2.70
2023-04-27T11:51:13.330Z,2.60
2023-04-27T11:53:41.555Z,2.20
2023-04-27T11:56:10.169Z,2.88
2023-04-27T11:58:46.460Z,2.55
2023-04-27T12:01:12.856Z,2.67
2023-04-27T13:11:19.241Z,3.08
2023-04-27T13:13:45.479Z,3.20
2023-04-27T13:16:13.893Z,2.72
2023-04-27T13:18:45.110Z,2.92
2023-04-27T13:21:12.782Z,2.78
2023-04-27T13:23:40.069Z,2.83
2023-04-27T13:26:06.337Z,2.70
2023-04-27T13:28:32.795Z,2.55
2023-04-27T13:31:03.586Z,2.60
2023-04-27T13:33:32.760Z,2.63
2023-04-27T13:35:59.288Z,2.75
2023-04-27T13:38:25.650Z,2.85
2023-04-27T13:40:51.920Z,2.63
2023-04-27T13:43:18.325Z,3.25
2023-04-27T13:45:44.653Z,2.50
2023-04-27T13:48:11.193Z,2.35
2023-04-27T13:50:37.660Z,2.97
2023-04-27T13:53:10.432Z,3.58
2023-04-27T13:55:38.166Z,2.90
2023-04-27T13:58:04.407Z,2.60
2023-04-27T14:00:35.568Z,2.70
2023-04-27T14:03:03.563Z,2.50
2023-04-27T14:05:42.700Z,2.72
2023-04-27T14:08:11.921Z,3.03
2023-04-27T14:10:38.356Z,2.65
2023-04-27T14:13:05.515Z,2.90
2023-04-27T14:15:31.876Z,2.70
2023-04-27T14:18:00.245Z,2.92
2023-04-27T14:20:32.172Z,3.00
2023-04-27T14:22:58.993Z,3.03
2023-04-27T14:25:25.212Z,2.25
2023-04-27T14:27:56.312Z,2.67
2023-04-27T14:30:27.203Z,3.00
2023-04-27T14:32:53.511Z,2.42
2023-04-27T14:35:22.653Z,2.55
2023-04-27T14:37:51.353Z,2.70
2023-04-27T14:40:21.088Z,2.17
2023-04-27T14:42:47.553Z,2.35
2023-04-27T14:45:16.572Z,2.30
2023-04-27T14:47:42.894Z,2.55
2023-04-27T14:50:09.513Z,2.55
2023-04-27T14:52:40.462Z,2.28
2023-04-27T14:55:08.351Z,2.35
2023-04-27T14:57:34.567Z,2.80
2023-04-27T15:00:00.897Z,3.08
2023-04-27T15:02:27.271Z,2.40
2023-04-27T15:04:55.993Z,2.00
2023-04-27T15:07:23.475Z,1.88
2023-04-27T15:09:50.894Z,1.67
2023-04-27T15:12:17.157Z,1.90
2023-04-27T15:14:47.626Z,1.90
2023-04-27T15:17:15.088Z,2.30
2023-04-27T15:19:41.406Z,1.67
2023-04-27T15:22:11.875Z,1.52
2023-04-27T15:24:38.271Z,1.70
2023-04-27T15:27:06.756Z,1.65
2023-04-27T15:29:33.999Z,1.88
2023-04-27T15:32:00.233Z,1.65
2023-04-27T15:34:26.703Z,1.63
2023-04-27T15:36:55.455Z,1.65
2023-04-27T15:39:21.748Z,1.80
2023-04-27T15:41:47.986Z,1.70
2023-04-27T15:44:17.129Z,1.67
2023-04-27T15:46:43.420Z,1.45
2023-04-27T15:49:09.711Z,1.70
2023-04-27T15:51:41.421Z,1.80
2023-04-27T15:54:07.642Z,1.50
2023-04-27T15:56:33.910Z,1.95
2023-04-27T15:59:00.359Z,1.60
2023-04-27T16:01:26.750Z,1.95
2023-04-27T16:03:53.403Z,1.50
2023-04-27T16:06:21.815Z,2.20
2023-04-27T16:08:52.481Z,1.80
2023-04-27T16:11:18.730Z,1.92
2023-04-27T16:13:48.162Z,1.70
2023-04-27T16:16:16.753Z,1.65
2023-04-27T16:18:45.161Z,1.70
2023-04-27T16:21:11.425Z,1.63
2023-04-27T16:23:37.746Z,2.28
2023-04-27T16:26:06.514Z,2.20
2023-04-27T16:28:33.293Z,1.70
2023-04-27T16:30:59.924Z,2.35
2023-04-27T16:33:26.285Z,1.83
2023-04-27T16:35:52.533Z,1.90
2023-04-27T16:38:20.709Z,2.33
2023-04-27T16:40:47.294Z,2.30
2023-04-27T16:43:13.633Z,2.03
2023-04-27T16:45:39.932Z,1.63
2023-04-27T16:48:06.428Z,1.75
2023-04-27T16:50:34.571Z,1.80
2023-04-27T16:53:10.380Z,2.63
2023-04-27T16:55:39.617Z,2.47
2023-04-27T16:58:09.275Z,1.88
2023-04-27T17:00:35.592Z,2.20
2023-04-27T17:03:01.906Z,2.50
2023-04-27T17:05:31.792Z,2.13
2023-04-27T17:08:01.521Z,2.60
2023-04-27T17:10:30.469Z,2.70
2023-04-27T17:12:58.055Z,2.67
2023-04-27T17:15:27.126Z,2.75
2023-04-27T17:17:55.936Z,2.95
2023-04-27T17:20:25.220Z,2.63
2023-04-27T17:22:51.433Z,1.90
2023-04-27T17:25:17.966Z,2.97
2023-04-27T17:27:44.261Z,2.10
2023-04-27T17:30:10.656Z,2.33
2023-04-27T17:32:38.165Z,2.72
2023-04-27T17:35:04.648Z,2.95
2023-04-27T17:37:33.517Z,2.85
2023-04-27T17:39:59.959Z,3.05
2023-04-27T17:42:26.173Z,2.70
2023-04-27T17:44:52.511Z,3.00
2023-04-27T17:47:21.217Z,2.95
2023-04-27T17:49:48.717Z,2.90
2023-04-27T17:52:17.754Z,2.97
2023-04-27T17:54:49.263Z,2.22
2023-04-27T17:57:15.481Z,1.98
2023-04-27T17:59:42.154Z,2.78
2023-04-27T18:02:08.515Z,2.50
2023-04-27T18:04:35.057Z,2.53
2023-04-27T18:07:01.398Z,3.15
2023-04-27T18:09:28.782Z,2.50
2023-04-27T18:11:58.739Z,2.60
2023-04-27T18:14:25.622Z,2.63
2023-04-27T18:16:51.979Z,2.30
2023-04-27T18:19:18.372Z,2.33
2023-04-27T18:21:44.832Z,2.97
2023-04-27T18:24:11.065Z,3.03
2023-04-27T18:26:37.249Z,2.60
2023-04-27T18:29:04.813Z,2.67
2023-04-27T18:31:31.250Z,2.70
2023-04-27T18:33:58.695Z,2.40
2023-04-27T18:36:25.621Z,2.90
2023-04-27T18:38:55.384Z,2.90
2023-04-27T18:41:24.773Z,2.85
2023-04-27T18:43:53.546Z,3.03
2023-04-27T18:46:21.191Z,2.60
2023-04-27T18:48:47.606Z,2.83
2023-04-27T18:51:13.868Z,2.45
2023-04-27T18:53:40.251Z,2.95
2023-04-27T18:56:08.033Z,2.58
2023-04-27T18:58:35.160Z,3.20
2023-04-27T19:01:05.712Z,2.80
2023-04-27T19:03:35.304Z,3.00
2023-04-27T19:06:05.091Z,3.22
2023-04-27T19:08:33.663Z,2.58
2023-04-27T19:11:09.813Z,2.90
2023-04-27T19:13:43.047Z,2.72
2023-04-27T19:16:10.040Z,2.83
2023-04-27T19:18:36.343Z,2.95
2023-04-27T19:21:10.170Z,2.90
2023-04-27T19:23:36.593Z,2.53
2023-04-27T19:26:13.094Z,3.20
2023-04-27T19:28:40.303Z,2.88
2023-04-27T19:31:09.163Z,3.15
2023-04-27T19:33:35.595Z,3.10
2023-04-27T19:36:01.843Z,2.78
2023-04-27T19:38:30.548Z,3.03
2023-04-27T19:40:57.787Z,2.28
2023-04-27T19:43:24.021Z,3.22
2023-04-27T19:45:50.355Z,2.83
2023-04-27T19:48:16.874Z,2.75
2023-04-27T19:50:43.583Z,2.70
2023-04-27T19:53:09.850Z,2.95
2023-04-27T19:55:37.540Z,3.00
2023-04-27T19:58:03.940Z,3.08
2023-04-27T20:00:30.189Z,2.50
2023-04-27T20:02:59.229Z,2.38
2023-04-27T20:05:28.213Z,3.25
2023-04-27T20:07:54.685Z,2.40
2023-04-27T20:10:22.270Z,2.83
2023-04-27T20:12:56.942Z,2.78
2023-04-27T20:15:24.416Z,3.00
2023-04-27T20:17:50.876Z,3.20
2023-04-27T20:20:17.290Z,3.25
2023-04-27T20:22:44.613Z,3.65
2023-04-27T20:25:10.853Z,3.13
2023-04-27T20:27:39.396Z,3.60
2023-04-27T20:30:06.132Z,3.65
2023-04-27T20:32:32.322Z,3.38
2023-04-27T20:35:01.947Z,3.35
2023-04-27T20:37:28.440Z,3.40
2023-04-27T20:39:56.005Z,3.13
2023-04-27T20:42:22.366Z,3.45
2023-04-27T20:44:48.646Z,3.67
2023-04-27T20:47:14.888Z,3.28
2023-04-27T20:49:41.944Z,3.58
2023-04-27T20:52:08.223Z,2.90
2023-04-27T20:54:36.797Z,3.17
2023-04-27T20:57:04.324Z,3.08
2023-04-27T20:59:31.741Z,2.78
2023-04-27T21:01:58.181Z,3.75
2023-04-27T21:04:29.409Z,3.45
2023-04-27T21:07:03.200Z,2.90
2023-04-27T21:09:29.432Z,3.47
2023-04-27T21:11:55.714Z,3.45
2023-04-27T21:14:23.136Z,2.67
2023-04-27T21:16:49.497Z,3.35
2023-04-27T21:19:15.833Z,3.13
2023-04-27T21:21:42.244Z,3.30
2023-04-27T21:24:08.738Z,2.55
2023-04-27T21:26:35.147Z,3.13
2023-04-27T21:29:01.761Z,2.80
2023-04-27T21:31:28.066Z,3.08
2023-04-27T21:33:54.381Z,2.50
2023-04-27T21:36:20.714Z,3.08
2023-04-27T21:38:46.909Z,3.70
2023-04-27T21:41:14.287Z,3.33
2023-04-27T21:43:40.542Z,3.90
2023-04-27T21:46:06.897Z,3.25
2023-04-27T21:48:33.231Z,3.08
2023-04-27T21:50:59.489Z,2.83
2023-04-27T21:53:33.100Z,3.25
2023-04-27T21:55:59.704Z,3.30
2023-04-27T21:58:28.281Z,2.97
2023-04-27T22:00:56.559Z,3.15
2023-04-27T22:03:23.044Z,3.15
2023-04-27T22:05:49.517Z,2.92
2023-04-27T22:08:18.570Z,3.75
2023-04-27T22:10:45.049Z,2.90
2023-04-27T22:15:46.855Z,2.97
2023-04-27T22:18:13.404Z,2.80
2023-04-27T22:20:39.762Z,2.80
2023-04-27T22:23:06.367Z,2.83
2023-04-27T22:25:35.426Z,3.63
2023-04-27T22:28:01.657Z,3.65
2023-04-27T22:30:30.815Z,2.90
2023-04-27T22:32:57.172Z,2.80
2023-04-27T22:35:26.929Z,3.90
2023-04-27T22:37:57.149Z,3.53
2023-04-27T22:40:23.369Z,3.95
2023-04-27T22:42:49.804Z,2.72
2023-04-27T22:45:18.952Z,4.05
2023-04-27T22:47:45.310Z,2.85
2023-04-27T22:50:19.158Z,3.08
2023-04-27T22:52:45.665Z,3.60
2023-04-27T22:55:12.328Z,3.45
2023-04-27T22:57:40.663Z,3.63
2023-04-27T23:00:18.252Z,4.03
2023-04-27T23:02:44.761Z,3.08
2023-04-27T23:05:11.420Z,3.70
2023-04-27T23:07:38.237Z,3.95
2023-04-27T23:10:07.067Z,3.25
2023-04-27T23:12:33.607Z,4.07
2023-04-27T23:14:59.929Z,3.08
2023-04-27T23:17:26.252Z,3.05
2023-04-27T23:19:52.596Z,4.00
2023-04-27T23:22:24.948Z,3.67
2023-04-27T23:24:51.254Z,3.78
2023-04-27T23:27:18.013Z,3.80
2023-04-27T23:29:44.486Z,3.47
2023-04-27T23:32:10.736Z,4.15
2023-04-27T23:34:42.588Z,3.15
2023-04-27T23:37:08.871Z,3.50
2023-04-27T23:39:35.322Z,3.75
2023-04-27T23:42:04.458Z,2.85
2023-04-27T23:44:30.719Z,3.13
2023-04-27T23:46:57.032Z,3.53
2023-04-27T23:49:24.239Z,3.80
2023-04-27T23:51:53.244Z,3.42
2023-04-27T23:54:21.966Z,3.80
2023-04-27T23:56:49.738Z,3.25
2023-04-27T23:59:16.078Z,3.42
